Terminal Aerodrome Forecast
Issued by NWS

Home | Current Version | Previous Version | Text Only | Print | Product List | Glossary On
Versions: 1 2 3 4 5 6 7 8 9 10 11 12 13 14 15 16 17 18 19 20 21 22 23 24 25 26 27
000
FTUS41 KBUF 270540
TAFJHW
TAF
KJHW 270540Z 2706/2806 21004KT P6SM BKN040
      TEMPO 2708/2712 BKN015
     FM271200 VRB04KT P6SM BKN040
     FM272000 35004KT P6SM SCT040
     FM280200 06004KT P6SM SCT250
      AMD LTD TO CLD VIS AND WIND=

USA.gov is the U.S. government's official web portal to all federal, state and local government web resources and services.